createdAt,value
2022-12-11T00:00:17.279Z,29.23
2022-12-11T00:03:19.673Z,29.55
2022-12-11T00:06:23.193Z,27.27
2022-12-11T00:09:25.489Z,27.38
2022-12-11T00:12:29.822Z,26.60
2022-12-11T00:15:32.310Z,28.85
2022-12-11T00:18:34.935Z,29.45
2022-12-11T00:21:37.263Z,28.02
2022-12-11T00:24:39.534Z,27.92
2022-12-11T00:27:43.085Z,27.55
2022-12-11T00:30:45.794Z,29.58
2022-12-11T00:33:51.337Z,30.33
2022-12-11T00:36:53.789Z,33.08
2022-12-11T00:39:56.140Z,31.55
2022-12-11T00:42:59.849Z,29.55
2022-12-11T00:46:02.287Z,32.85
2022-12-11T00:49:04.624Z,35.10
2022-12-11T00:52:06.970Z,31.42
2022-12-11T00:55:09.700Z,33.90
2022-12-11T00:58:14.166Z,34.15
2022-12-11T01:01:18.924Z,31.05
2022-12-11T01:04:21.447Z,32.03
2022-12-11T01:07:23.655Z,29.52
2022-12-11T01:10:26.237Z,30.35
2022-12-11T01:13:30.088Z,32.35
2022-12-11T01:16:32.746Z,27.80
2022-12-11T01:19:35.199Z,31.15
2022-12-11T01:22:37.504Z,28.98
2022-12-11T01:25:40.035Z,33.97
2022-12-11T01:28:44.237Z,31.30
2022-12-11T01:31:46.552Z,27.65
2022-12-11T01:34:48.937Z,32.25
2022-12-11T01:37:51.258Z,28.63
2022-12-11T01:40:53.670Z,31.08
2022-12-11T01:44:02.143Z,27.88
2022-12-11T01:47:04.500Z,27.98
2022-12-11T01:50:07.424Z,28.90
2022-12-11T01:53:13.901Z,31.08
2022-12-11T01:56:16.258Z,28.67
2022-12-11T01:59:23.373Z,28.45
2022-12-11T02:02:28.619Z,30.50
2022-12-11T02:05:31.055Z,29.42
2022-12-11T02:08:33.401Z,27.88
2022-12-11T02:11:46.227Z,27.45
2022-12-11T02:14:53.452Z,28.52
2022-12-11T02:18:02.020Z,27.67
2022-12-11T02:21:08.900Z,23.83
2022-12-11T02:24:23.790Z,27.52
2022-12-11T02:27:33.392Z,26.30
2022-12-11T02:30:38.175Z,24.45
2022-12-11T02:33:43.861Z,28.02
2022-12-11T02:36:50.774Z,25.27
2022-12-11T02:39:54.492Z,29.10
2022-12-11T02:42:58.125Z,26.23
2022-12-11T02:46:03.739Z,23.40
2022-12-11T02:49:07.197Z,21.42
2022-12-11T02:52:11.450Z,23.45
2022-12-11T02:55:15.268Z,23.33
2022-12-11T02:58:20.092Z,25.02
2022-12-11T03:01:23.847Z,24.42
2022-12-11T03:04:26.251Z,24.63
2022-12-11T03:07:33.247Z,24.83
2022-12-11T03:10:35.726Z,22.67
2022-12-11T03:13:40.457Z,23.17
2022-12-11T03:16:55.139Z,23.52
2022-12-11T03:20:06.439Z,21.27
2022-12-11T03:23:16.883Z,21.15
2022-12-11T03:26:21.167Z,22.25
2022-12-11T03:29:25.599Z,21.10
2022-12-11T03:32:31.772Z,21.80
2022-12-11T03:35:35.896Z,19.52
2022-12-11T03:38:42.682Z,21.95
2022-12-11T03:41:46.258Z,24.38
2022-12-11T03:44:50.091Z,20.90
2022-12-11T03:47:53.979Z,20.25
2022-12-11T03:50:56.605Z,21.85
2022-12-11T03:53:59.553Z,20.50
2022-12-11T03:57:02.915Z,19.58
2022-12-11T04:00:06.471Z,17.95
2022-12-11T04:03:16.407Z,19.48
2022-12-11T04:06:18.701Z,19.55
2022-12-11T04:09:21.061Z,20.30
2022-12-11T04:12:23.362Z,18.70
2022-12-11T04:15:25.627Z,21.40
2022-12-11T04:18:47.812Z,19.52
2022-12-11T04:25:11.100Z,18.77
2022-12-11T04:28:13.966Z,18.88
2022-12-11T04:31:19.943Z,18.38
2022-12-11T04:34:23.750Z,19.25
2022-12-11T04:37:27.256Z,17.55
2022-12-11T04:40:29.511Z,17.92
2022-12-11T04:43:32.290Z,20.00
2022-12-11T04:46:34.936Z,18.48
2022-12-11T04:49:38.680Z,18.27
2022-12-11T04:52:41.010Z,16.90
2022-12-11T04:55:43.282Z,18.92
2022-12-11T04:58:46.728Z,16.50
2022-12-11T05:01:49.037Z,16.23
2022-12-11T05:04:52.685Z,16.77
2022-12-11T05:07:54.956Z,18.45
2022-12-11T05:10:58.077Z,17.73
2022-12-11T05:14:00.432Z,17.77
2022-12-11T05:17:02.706Z,16.55
2022-12-11T05:20:07.814Z,19.63
2022-12-11T05:23:10.080Z,16.58
2022-12-11T05:26:14.381Z,15.95
2022-12-11T05:29:17.025Z,17.10
2022-12-11T05:32:19.294Z,16.63
2022-12-11T05:35:22.939Z,16.15
2022-12-11T05:38:25.501Z,17.50
2022-12-11T05:41:30.554Z,17.15
2022-12-11T05:44:32.985Z,14.43
2022-12-11T05:47:35.203Z,15.40
2022-12-11T05:50:38.941Z,17.23
2022-12-11T05:53:43.991Z,16.80
2022-12-11T05:56:46.283Z,17.08
2022-12-11T05:59:48.664Z,16.70
2022-12-11T06:02:51.073Z,15.63
2022-12-11T06:05:54.817Z,18.23
2022-12-11T06:08:58.056Z,16.95
2022-12-11T06:12:00.355Z,15.68
2022-12-11T06:15:02.696Z,18.23
2022-12-11T06:18:05.079Z,16.48
2022-12-11T06:21:14.473Z,17.83
2022-12-11T06:24:16.728Z,19.42
2022-12-11T06:27:19.470Z,17.67
2022-12-11T06:30:21.884Z,16.90
2022-12-11T06:33:40.771Z,17.65
2022-12-11T06:36:44.501Z,17.67
2022-12-11T06:39:46.747Z,17.52
2022-12-11T06:42:49.080Z,17.75
2022-12-11T06:45:51.755Z,17.83
2022-12-11T06:48:54.062Z,19.80
2022-12-11T06:51:58.503Z,18.75
2022-12-11T06:55:00.795Z,19.30
2022-12-11T06:58:05.634Z,16.23
2022-12-11T07:01:14.822Z,18.35
2022-12-11T07:04:17.200Z,17.67
2022-12-11T07:07:20.953Z,17.85
2022-12-11T07:10:23.401Z,22.50
2022-12-11T07:13:25.939Z,20.67
2022-12-11T07:16:28.513Z,18.05
2022-12-11T07:19:31.529Z,19.77
2022-12-11T07:22:35.447Z,19.48
2022-12-11T07:25:38.116Z,19.48
2022-12-11T07:28:41.070Z,18.60
2022-12-11T07:31:43.431Z,20.33
2022-12-11T07:34:50.148Z,17.63
2022-12-11T07:37:55.413Z,19.35
2022-12-11T07:41:01.413Z,19.35
2022-12-11T07:44:04.163Z,16.55
2022-12-11T07:47:06.451Z,17.50
2022-12-11T07:50:09.451Z,16.88
2022-12-11T07:53:13.108Z,17.08
2022-12-11T07:56:15.967Z,17.05
2022-12-11T07:59:18.310Z,17.17
2022-12-11T08:02:22.096Z,16.25
2022-12-11T08:05:24.670Z,17.42
2022-12-11T08:08:28.385Z,16.30
2022-12-11T08:11:31.022Z,15.80
2022-12-11T08:14:33.491Z,17.92
2022-12-11T08:17:39.988Z,16.15
2022-12-11T08:20:42.681Z,18.00
2022-12-11T08:23:48.520Z,18.67
2022-12-11T08:26:51.835Z,16.80
2022-12-11T08:29:54.216Z,17.95
2022-12-11T08:32:56.589Z,18.23
2022-12-11T08:35:58.873Z,18.52
2022-12-11T08:39:02.509Z,18.40
2022-12-11T08:42:07.841Z,17.98
2022-12-11T08:45:11.539Z,16.58
2022-12-11T08:48:14.500Z,17.10
2022-12-11T08:51:18.769Z,15.88
2022-12-11T08:54:22.695Z,17.88
2022-12-11T08:57:25.227Z,18.65
2022-12-11T09:00:28.699Z,17.80
2022-12-11T09:03:31.108Z,18.50
2022-12-11T09:06:33.634Z,16.50
2022-12-11T09:09:37.462Z,18.67
2022-12-11T09:12:42.988Z,18.80
2022-12-11T09:15:45.430Z,18.67
2022-12-11T09:18:49.513Z,16.80
2022-12-11T09:21:51.846Z,14.80
2022-12-11T09:24:55.744Z,16.13
2022-12-11T09:27:58.434Z,17.00
2022-12-11T09:31:01.515Z,17.48
2022-12-11T09:34:06.562Z,18.42
2022-12-11T09:37:09.543Z,19.88
2022-12-11T09:40:13.905Z,17.67
2022-12-11T09:43:26.986Z,17.33
2022-12-11T09:46:33.986Z,16.20
2022-12-11T09:49:39.997Z,17.95
2022-12-11T09:52:53.895Z,18.38
2022-12-11T09:56:03.036Z,17.50
2022-12-11T09:59:12.337Z,20.50
2022-12-11T10:02:24.718Z,19.00
2022-12-11T10:05:31.009Z,18.52
2022-12-11T10:08:40.240Z,20.42
2022-12-11T10:11:59.062Z,20.52
2022-12-11T10:15:15.364Z,20.95
2022-12-11T10:18:22.962Z,20.70
2022-12-11T10:21:26.287Z,21.77
2022-12-11T10:25:09.416Z,21.63
2022-12-11T10:27:58.573Z,21.65
2022-12-11T10:31:06.845Z,19.90
2022-12-11T10:34:13.631Z,22.48
2022-12-11T10:37:16.062Z,22.15
2022-12-11T10:40:19.148Z,19.88
2022-12-11T10:43:32.741Z,20.20
2022-12-11T10:46:37.234Z,21.10
2022-12-11T10:49:43.975Z,23.67
2022-12-11T10:52:46.429Z,23.77
2022-12-11T10:55:49.381Z,23.40
2022-12-11T10:58:53.262Z,27.08
2022-12-11T11:01:55.761Z,26.58
2022-12-11T11:04:59.334Z,26.67
2022-12-11T11:08:16.270Z,27.08
2022-12-11T11:11:28.254Z,28.00
2022-12-11T11:14:32.258Z,28.50
2022-12-11T11:17:52.770Z,32.88
2022-12-11T11:20:57.293Z,34.42
2022-12-11T11:24:00.110Z,28.90
2022-12-11T11:27:13.702Z,35.50
2022-12-11T11:30:21.635Z,30.50
2022-12-11T11:33:24.622Z,31.20
2022-12-11T11:36:28.910Z,27.83
2022-12-11T11:39:37.620Z,27.48
2022-12-11T11:42:45.910Z,28.73
2022-12-11T11:45:55.768Z,30.40
2022-12-11T11:49:04.715Z,28.15
2022-12-11T11:52:15.197Z,27.08
2022-12-11T11:55:22.594Z,30.20
2022-12-11T11:58:29.115Z,22.33
2022-12-11T12:01:33.040Z,22.15
2022-12-11T12:04:36.854Z,23.48
2022-12-11T12:07:46.026Z,21.27
2022-12-11T12:11:00.890Z,23.90
2022-12-11T12:14:29.120Z,22.23
2022-12-11T12:17:42.262Z,21.60
2022-12-11T12:20:50.788Z,21.35
2022-12-11T12:24:03.128Z,23.08
2022-12-11T12:27:50.124Z,18.05
2022-12-11T12:30:44.951Z,19.60
2022-12-11T12:33:57.878Z,21.70
2022-12-11T12:37:06.893Z,21.02
2022-12-11T12:40:15.144Z,21.52
2022-12-11T12:43:40.369Z,21.75
2022-12-11T12:46:52.015Z,24.88
2022-12-11T12:49:56.100Z,24.15
2022-12-11T12:52:58.685Z,23.70
2022-12-11T12:56:02.154Z,25.63
2022-12-11T12:59:04.528Z,21.88
2022-12-11T13:02:13.581Z,22.67
2022-12-11T13:05:25.229Z,26.63
2022-12-11T13:08:30.818Z,25.45
2022-12-11T13:11:34.365Z,22.45
2022-12-11T13:14:36.627Z,21.77
2022-12-11T13:17:39.231Z,16.90
2022-12-11T13:20:51.084Z,20.92
2022-12-11T13:26:55.867Z,20.52
2022-12-11T13:30:06.770Z,20.48
2022-12-11T13:33:21.182Z,21.30
2022-12-11T13:36:31.807Z,21.52
2022-12-11T13:39:35.704Z,21.05
2022-12-11T13:42:42.269Z,21.67
2022-12-11T13:45:50.676Z,20.35
2022-12-11T13:49:00.725Z,19.55
2022-12-11T13:52:07.050Z,20.42
2022-12-11T13:55:20.784Z,18.02
2022-12-11T13:58:23.793Z,17.00
2022-12-11T14:01:28.137Z,17.65
2022-12-11T14:04:31.665Z,18.58
2022-12-11T14:07:38.112Z,17.45
2022-12-11T14:10:40.462Z,16.52
2022-12-11T14:13:43.516Z,17.75
2022-12-11T14:16:49.037Z,18.73
2022-12-11T14:19:53.773Z,18.17
2022-12-11T14:23:06.530Z,19.42
2022-12-11T14:26:17.526Z,19.00
2022-12-11T14:29:28.118Z,18.92
2022-12-11T14:32:33.103Z,19.48
2022-12-11T14:35:39.407Z,18.98
2022-12-11T14:38:46.282Z,16.30
2022-12-11T14:41:52.813Z,14.95
2022-12-11T14:44:57.623Z,15.68
2022-12-11T14:48:03.200Z,18.40
2022-12-11T14:51:07.698Z,18.70
2022-12-11T14:54:20.401Z,19.33
2022-12-11T14:57:24.993Z,15.68
2022-12-11T15:00:29.278Z,13.43
2022-12-11T15:03:34.255Z,15.45
2022-12-11T15:06:44.275Z,16.75
2022-12-11T15:09:51.076Z,16.55
2022-12-11T15:12:53.971Z,16.77
2022-12-11T15:15:56.865Z,16.00
2022-12-11T15:19:00.162Z,18.10
2022-12-11T15:22:03.918Z,18.95
2022-12-11T15:25:17.928Z,18.73
2022-12-11T15:28:26.987Z,19.63
2022-12-11T15:31:32.112Z,19.60
2022-12-11T15:34:35.709Z,16.38
2022-12-11T15:37:40.077Z,20.95
2022-12-11T15:40:43.686Z,18.52
2022-12-11T15:43:46.020Z,20.33
2022-12-11T15:46:48.317Z,21.65
2022-12-11T15:49:54.551Z,19.92
2022-12-11T15:53:00.934Z,18.77
2022-12-11T15:56:05.469Z,20.60
2022-12-11T15:59:08.100Z,19.63
2022-12-11T16:02:11.791Z,19.10
2022-12-11T16:05:14.795Z,20.17
2022-12-11T16:08:19.105Z,21.10
2022-12-11T16:11:22.860Z,19.55
2022-12-11T16:14:25.514Z,20.20
2022-12-11T16:17:27.818Z,18.70
2022-12-11T16:20:30.909Z,19.35
2022-12-11T16:23:33.184Z,21.80
2022-12-11T16:26:36.851Z,18.65
2022-12-11T16:29:41.462Z,21.65
2022-12-11T16:32:43.798Z,18.70
2022-12-11T16:35:46.251Z,19.40
2022-12-11T16:38:53.499Z,19.35
2022-12-11T16:41:57.672Z,20.05
2022-12-11T16:45:04.272Z,20.25
2022-12-11T16:48:06.898Z,21.67
2022-12-11T16:51:09.117Z,19.80
2022-12-11T16:54:12.270Z,20.20
2022-12-11T16:57:15.971Z,19.60
2022-12-11T17:00:18.468Z,20.17
2022-12-11T17:03:20.742Z,19.63
2022-12-11T17:06:23.306Z,19.05
2022-12-11T17:09:25.872Z,20.15
2022-12-11T17:12:30.614Z,17.42
2022-12-11T17:15:32.992Z,21.48
2022-12-11T17:18:35.495Z,20.92
2022-12-11T17:21:40.494Z,19.25
2022-12-11T17:24:42.815Z,19.80
2022-12-11T17:27:46.447Z,19.98
2022-12-11T17:30:49.973Z,20.85
2022-12-11T17:33:53.948Z,18.40
2022-12-11T17:36:56.261Z,20.08
2022-12-11T17:39:58.690Z,18.83
2022-12-11T17:43:06.454Z,21.05
2022-12-11T17:46:10.465Z,19.52
2022-12-11T17:49:13.152Z,21.88
2022-12-11T17:52:15.436Z,21.73
2022-12-11T17:55:17.971Z,21.20
2022-12-11T17:58:22.995Z,20.60
2022-12-11T18:01:25.286Z,18.90
2022-12-11T18:04:28.426Z,19.75
2022-12-11T18:07:30.633Z,20.33
2022-12-11T18:10:35.836Z,22.20
2022-12-11T18:13:39.981Z,23.85
2022-12-11T18:16:42.326Z,20.58
2022-12-11T18:19:46.248Z,22.20
2022-12-11T18:22:48.637Z,22.92
2022-12-11T18:25:52.470Z,22.13
2022-12-11T18:28:56.046Z,22.45
2022-12-11T18:31:58.532Z,22.95
2022-12-11T18:35:02.293Z,24.40
2022-12-11T18:38:04.466Z,22.25
2022-12-11T18:41:08.364Z,21.65
2022-12-11T18:44:11.966Z,21.08
2022-12-11T18:47:14.351Z,21.90
2022-12-11T18:50:16.850Z,20.50
2022-12-11T18:53:19.572Z,21.85
2022-12-11T18:56:22.189Z,22.83
2022-12-11T18:59:27.091Z,22.05
2022-12-11T19:02:29.320Z,20.42
2022-12-11T19:05:33.230Z,20.80
2022-12-11T19:08:35.537Z,23.23
2022-12-11T19:11:39.549Z,24.52
2022-12-11T19:14:43.238Z,20.95
2022-12-11T19:17:45.572Z,19.70
2022-12-11T19:20:51.765Z,20.88
2022-12-11T19:23:59.316Z,19.05
2022-12-11T19:27:04.503Z,19.10
2022-12-11T19:30:11.901Z,17.77
2022-12-11T19:33:14.369Z,20.10
2022-12-11T19:36:18.767Z,19.70
2022-12-11T19:39:21.413Z,19.00
2022-12-11T19:42:23.709Z,20.95
2022-12-11T19:45:27.299Z,17.08
2022-12-11T19:48:29.845Z,18.58
2022-12-11T19:51:34.053Z,19.10
2022-12-11T19:54:36.800Z,19.73
2022-12-11T19:57:39.148Z,18.48
2022-12-11T20:00:43.054Z,18.40
2022-12-11T20:03:45.391Z,16.40
2022-12-11T20:06:48.359Z,20.35
2022-12-11T20:09:50.629Z,20.63
2022-12-11T20:12:56.399Z,20.13
2022-12-11T20:16:02.622Z,20.48
2022-12-11T20:19:05.108Z,19.58
2022-12-11T20:22:07.829Z,18.90
2022-12-11T20:25:10.486Z,19.27
2022-12-11T20:28:16.103Z,20.55
2022-12-11T20:31:21.276Z,20.80
2022-12-11T20:34:23.840Z,19.45
2022-12-11T20:37:27.199Z,18.83
2022-12-11T20:40:30.978Z,17.75
2022-12-11T20:43:33.299Z,18.50
2022-12-11T20:46:36.984Z,20.48
2022-12-11T20:49:39.563Z,19.67
2022-12-11T20:52:42.959Z,17.40
2022-12-11T20:55:45.341Z,19.38
2022-12-11T20:58:48.487Z,19.75
2022-12-11T21:01:52.284Z,18.42
2022-12-11T21:04:54.558Z,17.60
2022-12-11T21:07:56.953Z,17.38
2022-12-11T21:10:59.380Z,17.63
2022-12-11T21:14:02.138Z,18.73
2022-12-11T21:17:06.045Z,21.67
2022-12-11T21:20:09.382Z,19.70
2022-12-11T21:23:11.796Z,20.25
2022-12-11T21:26:14.408Z,20.27
2022-12-11T21:29:17.149Z,17.85
2022-12-11T21:32:20.864Z,18.30
2022-12-11T21:35:23.306Z,18.95
2022-12-11T21:38:25.922Z,16.20
2022-12-11T21:41:28.396Z,19.48
2022-12-11T21:47:55.561Z,14.98
2022-12-11T21:51:05.919Z,17.17
2022-12-11T21:54:13.475Z,18.30
2022-12-11T21:57:17.372Z,18.30
2022-12-11T22:00:22.686Z,20.73
2022-12-11T22:03:26.207Z,18.50
2022-12-11T22:06:28.485Z,17.88
2022-12-11T22:09:30.736Z,18.75
2022-12-11T22:12:32.992Z,18.38
2022-12-11T22:15:35.364Z,18.02
2022-12-11T22:18:39.039Z,18.15
2022-12-11T22:21:41.623Z,17.33
2022-12-11T22:24:43.925Z,17.65
2022-12-11T22:27:46.219Z,19.08
2022-12-11T22:30:48.699Z,20.27
2022-12-11T22:33:56.040Z,19.77
2022-12-11T22:36:58.371Z,20.15
2022-12-11T22:40:01.203Z,18.05
2022-12-11T22:43:03.514Z,17.95
2022-12-11T22:46:05.840Z,17.75
2022-12-11T22:49:09.556Z,19.48
2022-12-11T22:52:11.926Z,17.10
2022-12-11T22:55:14.534Z,19.95
2022-12-11T22:58:21.643Z,19.42
2022-12-11T23:01:25.694Z,18.95
2022-12-11T23:04:29.332Z,19.73
2022-12-11T23:07:31.757Z,18.13
2022-12-11T23:10:33.962Z,17.85
2022-12-11T23:13:36.169Z,20.52
2022-12-11T23:16:39.449Z,19.17
2022-12-11T23:19:43.147Z,18.95
2022-12-11T23:22:45.404Z,18.05
2022-12-11T23:25:47.675Z,20.88
2022-12-11T23:28:50.352Z,20.15
2022-12-11T23:31:52.567Z,19.25
2022-12-11T23:34:56.234Z,20.15
2022-12-11T23:37:58.425Z,18.08
2022-12-11T23:41:01.469Z,17.58
2022-12-11T23:44:03.808Z,21.13
2022-12-11T23:47:06.249Z,20.05
2022-12-11T23:50:10.029Z,18.33
2022-12-11T23:53:12.340Z,18.00
2022-12-11T23:56:17.476Z,19.55
2022-12-11T23:59:20.544Z,19.33
